LAF - Purdue University

Pirep is a free, collaborative database of all public and private airports located within the United States. All pilots are welcome to contribute, edit, and improve any airport they have local knowledge about, no registration required.
Uploaded photos will be licensed under a CC BY-SA 4.0 license. Please only upload photos you have the rights to use.
Tags
Public
METAR / TAF
Flying Clubs
Car Rental
Edit Tags
Food
Camping
Lodging
Bicycles
Swimming
Golfing
Fishing
Hot Springs
Museum
Airpark
Upcoming Events
No upcoming events. Is anything happening here soon?
*
*
*

Where exactly on/near the airport is this event taking place?

Is there a webpage with more information for this event?

Who should be contacted for more information?

What is this event all about?

Repeat every
Description
Last updated: 2024-02-19 19:45:43 EST
Transient Parking
Fuel Location
Landing & Tie-down Fees
Crew Car Availability
Flying Clubs
Last updated: 2024-02-19 19:44:39 EST
WiFi Access
Airport Statistics
Location: Lafayette, IN
Elevation: 605ft
Sectional: Chicago
Activation date: Apr 1940
Fuel: 100LL, A (prices)
Runway 10/28: 6,600ft
Runway 05/23: 4,225ft
Access: Open to the public
Current Weather — VFR
  • Weather data is strictly informational and not for flight planning purposes.
  • METAR
    2024-06-17 09:54:00 EDT
    Ceiling Wind Temperature Dewpoint Weather Visbility
    Sky clear 210° @ 5kt 84°F 73°F N/A 10SM
    Raw: KLAF 171354Z 21005KT 10SM CLR 29/23 A3004 RMK AO2 SLP164 T02940233
  • TAF
    2024-06-17 08:00:00 EDT – 2024-06-17 11:00:00 EDT
    Ceiling Wind Weather Visbility
    Sky clear 180° @ 6kt N/A 6SM
    Clouds: @ ft
    Raw: KLAF 171120Z 1712/1812 18006KT P6SM SKC FM171500 20009G17KT P6SM VCSH SCT040 SCT070 FM180000 17007KT P6SM SCT050 BKN100 AMD LTD TO CLD VIS AND WIND TIL 171300
  • TAF
    2024-06-17 11:00:00 EDT – 2024-06-17 20:00:00 EDT
    Ceiling Wind Weather Visbility
    Sky clear 200° @ 9kt, gusts 17kt Showers in vicinity 6SM
    Clouds: Scattered @ 4,000ft, Scattered @ 7,000ft
    Raw: KLAF 171120Z 1712/1812 18006KT P6SM SKC FM171500 20009G17KT P6SM VCSH SCT040 SCT070 FM180000 17007KT P6SM SCT050 BKN100 AMD LTD TO CLD VIS AND WIND TIL 171300
  • TAF
    2024-06-17 20:00:00 EDT – 2024-06-18 08:00:00 EDT
    Ceiling Wind Weather Visbility
    10,000ft 170° @ 7kt N/A 6SM
    Clouds: Scattered @ 5,000ft, Broken @ 10,000ft
    Raw: KLAF 171120Z 1712/1812 18006KT P6SM SKC FM171500 20009G17KT P6SM VCSH SCT040 SCT070 FM180000 17007KT P6SM SCT050 BKN100 AMD LTD TO CLD VIS AND WIND TIL 171300
Click/tap to add an annotation marker to the map
Airport Webcams
No webcams added yet.
Direct links to live image URLs will be displayed inline on this page. URLs to separate webpages will be linked to.
URL:
Direct links to live image URLs will be displayed inline on this page. URLs to separate webpages will be linked to.
URL:
Remarks
  • Clsd to sked acr ops gtr than 9 pax seats. unsked acr ops gtr than 30 pax seats ppr - 765-496-6326 or 765-496-4057. index b arff capability avbl on req.
  • Trng ops & birds invof arpt.
  • Sfc cond unmnt 2200-0600 or wkend.
  • For cd if una to ctc on fss freq, ctc chicago artcc at 630-906-8921.
  • When atct clsd actvt malsr rwy 10; reil rwy 5, 23 & 28; mirl rwy 5/23; hirl rwy 10/28 - ctaf.
Comments
Leave a comment What was your experience like at this airport?